CheckWX is a tool to help pilots better visualize weather data.  It is not intended as a substitute for an official pre-flight weather briefing.

12:31:19 UTC

KCVB METAR
Castroville Municipal Airport
Castroville, Texas, USA
Current

16 mins ago

KCVB 161215Z AUTO 01006KT 7SM CLR 19/18 A3004 RMK AO2 T01920183
Observed
Oct-16 @ 12:15 UTC
Wind
  • 010° at 6 KTS
Visibility
7 SM
Flight Rules
VFR
Cloud Levels
  • Clear skies
Temperature
19°C / 66°F
Dewpoint
18°C / 64°F
Humidity
94%
Altimeter
30.04" Hg
Pressure
1017.32 hPa
Previous

36 mins ago

KCVB 161155Z AUTO 36006KT 10SM -RA SCT033 SCT044 SCT055 19/19 A3003 RMK AO2 P0012 60150 70171 T01920185 10230 20192
Observed
Oct-16 @ 11:55 UTC
Wind
  • 360° at 6 KTS
Visibility
10 SM
Flight Rules
VFR
Conditions
Light Rain
Cloud Levels
  • Scattered at 3,300' AGL
  • Scattered at 4,400' AGL
  • Scattered at 5,500' AGL
Temperature
19°C / 66°F
Dewpoint
19°C / 66°F
Humidity
100%
Altimeter
30.03" Hg
Pressure
1016.92 hPa
Current Rain
0.12"
24 Hour Rain
1.71"
Previous

56 mins ago

KCVB 161135Z AUTO 02007KT 7SM RA SCT028 BKN055 OVC070 19/19 A3002 RMK AO2 P0011 T01920185
Observed
Oct-16 @ 11:35 UTC
Wind
  • 020° at 7 KTS
Visibility
7 SM
Flight Rules
VFR
Conditions
Rain
Cloud Levels
  • Scattered at 2,800' AGL
  • Broken at 5,500' AGL
  • Overcast at 7,000' AGL
Temperature
19°C / 66°F
Dewpoint
19°C / 66°F
Humidity
100%
Altimeter
30.02" Hg
Pressure
1016.62 hPa
Current Rain
0.11"